createdAt,value
2018-09-28T00:02:20.611Z,3.80
2018-09-28T00:04:49.839Z,4.00
2018-09-28T00:07:19.041Z,3.70
2018-09-28T00:09:48.191Z,3.80
2018-09-28T00:12:18.366Z,3.87
2018-09-28T00:14:48.390Z,3.70
2018-09-28T00:17:17.503Z,3.70
2018-09-28T00:19:46.708Z,3.57
2018-09-28T00:22:16.047Z,4.17
2018-09-28T00:24:45.924Z,3.77
2018-09-28T00:27:15.402Z,4.00
2018-09-28T00:29:46.379Z,4.17
2018-09-28T00:32:15.639Z,3.60
2018-09-28T00:34:44.789Z,3.97
2018-09-28T00:37:14.711Z,3.97
2018-09-28T00:39:43.865Z,3.57
2018-09-28T00:42:13.043Z,3.80
2018-09-28T00:44:42.454Z,3.70
2018-09-28T00:47:11.657Z,3.60
2018-09-28T00:49:41.172Z,3.80
2018-09-28T00:52:10.334Z,3.70
2018-09-28T00:54:39.611Z,3.63
2018-09-28T00:57:08.785Z,3.87
2018-09-28T00:59:38.196Z,4.03
2018-09-28T01:02:07.440Z,3.47
2018-09-28T01:04:36.565Z,3.63
2018-09-28T01:07:09.215Z,3.57
2018-09-28T01:09:38.408Z,3.50
2018-09-28T01:12:07.561Z,3.60
2018-09-28T01:14:37.456Z,3.77
2018-09-28T01:17:06.683Z,3.87
2018-09-28T01:19:35.936Z,3.77
2018-09-28T01:22:05.230Z,3.57
2018-09-28T01:24:34.810Z,3.60
2018-09-28T01:27:04.729Z,3.60
2018-09-28T01:29:34.336Z,3.47
2018-09-28T01:32:03.605Z,3.80
2018-09-28T01:34:33.887Z,3.83
2018-09-28T01:37:03.628Z,3.63
2018-09-28T01:39:32.951Z,3.80
2018-09-28T01:42:02.286Z,3.67
2018-09-28T01:44:31.558Z,4.17
2018-09-28T01:47:00.737Z,3.97
2018-09-28T01:49:30.010Z,3.63
2018-09-28T01:51:59.134Z,4.20
2018-09-28T01:54:29.087Z,4.27
2018-09-28T01:56:58.267Z,3.90
2018-09-28T01:59:28.802Z,4.10
2018-09-28T02:01:58.379Z,3.83
2018-09-28T02:04:27.904Z,4.27
2018-09-28T02:06:57.329Z,3.87
2018-09-28T02:09:26.838Z,4.40
2018-09-28T02:11:56.529Z,4.13
2018-09-28T02:14:25.638Z,4.53
2018-09-28T02:16:54.823Z,4.13
2018-09-28T02:19:24.318Z,4.13
2018-09-28T02:21:53.498Z,4.40
2018-09-28T02:24:22.712Z,4.10
2018-09-28T02:26:51.927Z,4.00
2018-09-28T02:29:21.415Z,4.40
2018-09-28T02:31:51.358Z,4.60
2018-09-28T02:34:20.572Z,4.13
2018-09-28T02:36:50.237Z,4.50
2018-09-28T02:39:19.453Z,4.73
2018-09-28T02:41:48.822Z,4.43
2018-09-28T02:44:18.294Z,4.53
2018-09-28T02:46:47.462Z,4.13
2018-09-28T02:49:17.277Z,4.23
2018-09-28T02:51:46.779Z,4.17
2018-09-28T02:54:16.090Z,5.00
2018-09-28T02:56:45.567Z,4.43
2018-09-28T02:59:16.336Z,4.30
2018-09-28T03:01:45.576Z,4.47
2018-09-28T03:04:15.357Z,4.83
2018-09-28T03:06:44.571Z,4.47
2018-09-28T03:09:14.142Z,5.00
2018-09-28T03:11:43.334Z,4.50
2018-09-28T03:14:12.981Z,5.10
2018-09-28T03:16:42.164Z,4.63
2018-09-28T03:19:11.396Z,4.50
2018-09-28T03:21:40.811Z,5.00
2018-09-28T03:24:10.193Z,4.73
2018-09-28T03:26:39.329Z,5.03
2018-09-28T03:29:08.753Z,4.87
2018-09-28T03:31:38.017Z,4.70
2018-09-28T03:34:07.281Z,4.93
2018-09-28T03:36:36.473Z,4.23
2018-09-28T03:39:12.364Z,4.83
2018-09-28T03:41:41.782Z,5.07
2018-09-28T03:44:12.076Z,4.47
2018-09-28T03:46:41.452Z,4.17
2018-09-28T03:49:10.680Z,4.87
2018-09-28T03:51:40.202Z,4.67
2018-09-28T03:54:09.617Z,5.47
2018-09-28T03:56:39.270Z,4.93
2018-09-28T03:59:08.478Z,5.47
2018-09-28T04:01:37.840Z,4.80
2018-09-28T04:04:08.018Z,4.93
2018-09-28T04:06:37.267Z,5.60
2018-09-28T04:09:09.145Z,4.57
2018-09-28T04:11:38.363Z,5.20
2018-09-28T04:14:08.253Z,5.03
2018-09-28T04:16:37.472Z,4.73
2018-09-28T04:19:06.642Z,5.17
2018-09-28T04:21:36.065Z,5.00
2018-09-28T04:24:05.258Z,5.00
2018-09-28T04:26:34.523Z,5.17
2018-09-28T04:29:04.215Z,4.73
2018-09-28T04:31:34.268Z,5.20
2018-09-28T04:34:04.240Z,4.70
2018-09-28T04:36:33.397Z,4.50
2018-09-28T04:39:02.921Z,5.90
2018-09-28T04:41:32.722Z,5.03
2018-09-28T04:44:02.674Z,5.93
2018-09-28T04:46:31.905Z,4.93
2018-09-28T04:49:02.934Z,6.00
2018-09-28T04:51:32.798Z,5.73
2018-09-28T04:54:08.320Z,5.00
2018-09-28T04:56:44.281Z,6.50
2018-09-28T04:59:13.955Z,6.73
2018-09-28T05:01:50.068Z,5.97
2018-09-28T05:04:19.372Z,7.17
2018-09-28T05:06:51.474Z,7.00
2018-09-28T05:09:20.727Z,5.73
2018-09-28T05:11:49.988Z,6.20
2018-09-28T05:14:21.054Z,5.87
2018-09-28T05:16:50.403Z,5.83
2018-09-28T05:19:20.359Z,5.57
2018-09-28T05:21:49.649Z,5.80
2018-09-28T05:24:20.013Z,5.40
2018-09-28T05:26:49.295Z,6.27
2018-09-28T05:29:19.163Z,5.30
2018-09-28T05:31:49.190Z,5.30
2018-09-28T05:34:21.801Z,5.97
2018-09-28T05:36:53.182Z,5.80
2018-09-28T05:39:24.919Z,7.17
2018-09-28T05:41:55.074Z,8.90
2018-09-28T05:44:24.570Z,9.40
2018-09-28T05:46:54.354Z,10.60
2018-09-28T05:49:24.333Z,10.80
2018-09-28T05:51:54.552Z,11.63
2018-09-28T05:54:26.210Z,11.63
2018-09-28T05:56:57.799Z,11.87
2018-09-28T05:59:32.175Z,10.60
2018-09-28T06:02:07.042Z,10.93
2018-09-28T06:04:42.132Z,9.70
2018-09-28T06:07:13.018Z,8.83
2018-09-28T06:09:46.515Z,7.83
2018-09-28T06:12:16.055Z,8.47
2018-09-28T06:14:46.241Z,7.80
2018-09-28T06:17:16.003Z,6.67
2018-09-28T06:19:52.960Z,7.33
2018-09-28T06:22:23.189Z,6.53
2018-09-28T06:24:53.059Z,6.47
2018-09-28T06:27:23.718Z,6.90
2018-09-28T06:30:00.159Z,10.97
2018-09-28T06:32:30.164Z,6.77
2018-09-28T06:35:00.180Z,6.43
2018-09-28T06:37:30.485Z,6.63
2018-09-28T06:40:00.045Z,6.33
2018-09-28T06:42:30.398Z,5.90
2018-09-28T06:45:01.721Z,6.43
2018-09-28T06:47:40.136Z,7.67
2018-09-28T06:50:10.488Z,6.97
2018-09-28T06:52:39.725Z,7.40
2018-09-28T06:55:13.196Z,7.07
2018-09-28T06:57:43.309Z,6.60
2018-09-28T07:00:13.353Z,6.80
2018-09-28T07:02:45.221Z,7.37
2018-09-28T07:05:14.864Z,7.10
2018-09-28T07:07:44.496Z,6.63
2018-09-28T07:10:17.817Z,7.37
2018-09-28T07:12:47.236Z,6.23
2018-09-28T07:15:20.161Z,6.10
2018-09-28T07:17:51.901Z,7.10
2018-09-28T07:20:24.364Z,6.27
2018-09-28T07:22:54.938Z,6.23
2018-09-28T07:25:24.193Z,6.37
2018-09-28T07:27:54.730Z,6.13
2018-09-28T07:30:24.741Z,6.90
2018-09-28T07:32:55.096Z,6.33
2018-09-28T07:35:25.287Z,7.20
2018-09-28T07:37:57.788Z,7.50
2018-09-28T07:40:29.215Z,6.83
2018-09-28T07:42:59.562Z,6.97
2018-09-28T07:45:29.311Z,7.53
2018-09-28T07:47:59.717Z,8.43
2018-09-28T07:50:29.834Z,10.33
2018-09-28T07:52:59.381Z,11.20
2018-09-28T07:55:29.664Z,14.10
2018-09-28T07:58:04.031Z,14.67
2018-09-28T08:00:34.100Z,14.60
2018-09-28T08:03:05.874Z,15.87
2018-09-28T08:05:38.263Z,16.53
2018-09-28T08:08:08.716Z,15.97
2018-09-28T08:10:40.616Z,18.73
2018-09-28T08:13:11.391Z,23.47
2018-09-28T08:15:42.298Z,23.30
2018-09-28T08:18:12.185Z,22.57
2018-09-28T08:20:45.880Z,25.00
2018-09-28T08:23:15.756Z,25.40
2018-09-28T08:25:47.806Z,26.73
2018-09-28T08:28:17.394Z,26.97
2018-09-28T08:30:48.184Z,28.17
2018-09-28T08:33:17.905Z,28.00
2018-09-28T08:35:49.671Z,27.43
2018-09-28T08:38:19.142Z,28.73
2018-09-28T08:40:50.657Z,31.77
2018-09-28T08:43:27.857Z,29.87
2018-09-28T08:46:07.557Z,31.13
2018-09-28T08:48:46.393Z,31.77
2018-09-28T08:51:20.575Z,30.23
2018-09-28T08:53:53.149Z,30.67
2018-09-28T08:56:26.292Z,32.40
2018-09-28T08:58:55.962Z,31.93
2018-09-28T09:01:25.725Z,33.87
2018-09-28T09:03:57.123Z,34.70
2018-09-28T09:06:40.406Z,34.67
2018-09-28T09:09:17.200Z,34.57
2018-09-28T09:11:48.298Z,35.23
2018-09-28T09:14:20.751Z,36.47
2018-09-28T09:16:50.414Z,36.53
2018-09-28T09:19:20.587Z,37.40
2018-09-28T09:21:51.654Z,36.50
2018-09-28T09:24:21.274Z,38.23
2018-09-28T09:26:54.121Z,38.37
2018-09-28T09:29:25.106Z,37.70
2018-09-28T09:31:56.516Z,40.83
2018-09-28T09:34:27.091Z,39.87
2018-09-28T09:36:57.080Z,40.33
2018-09-28T09:39:26.846Z,41.00
2018-09-28T09:41:56.993Z,40.50
2018-09-28T09:44:27.699Z,42.03
2018-09-28T09:46:57.632Z,39.93
2018-09-28T09:49:27.594Z,42.20
2018-09-28T09:51:58.381Z,44.70
2018-09-28T09:54:28.437Z,45.20
2018-09-28T09:56:59.292Z,45.30
2018-09-28T09:59:29.285Z,47.53
2018-09-28T10:02:04.097Z,49.07
2018-09-28T10:04:34.209Z,49.97
2018-09-28T10:07:07.253Z,52.70
2018-09-28T10:09:36.962Z,53.70
2018-09-28T10:12:06.820Z,72.32
2018-09-28T10:14:37.184Z,54.77
2018-09-28T10:17:07.068Z,49.77
2018-09-28T10:19:38.061Z,50.60
2018-09-28T10:22:08.644Z,47.87
2018-09-28T10:24:41.561Z,46.50
2018-09-28T10:27:13.360Z,43.73
2018-09-28T10:29:49.126Z,36.87
2018-09-28T10:32:21.204Z,35.33
2018-09-28T10:34:50.588Z,28.93
2018-09-28T10:37:22.328Z,29.13
2018-09-28T10:41:23.524Z,25.73
2018-09-28T10:43:53.805Z,32.08
2018-09-28T10:46:25.792Z,26.83
2018-09-28T10:48:55.150Z,25.27
2018-09-28T10:51:27.279Z,20.13
2018-09-28T10:53:57.214Z,21.50
2018-09-28T10:56:27.183Z,21.33
2018-09-28T10:58:57.737Z,22.37
2018-09-28T11:01:27.735Z,21.33
2018-09-28T11:03:58.830Z,18.00
2018-09-28T11:06:29.602Z,18.87
2018-09-28T11:09:00.824Z,20.63
2018-09-28T11:11:32.433Z,20.27
2018-09-28T11:14:02.791Z,20.97
2018-09-28T11:16:34.650Z,20.83
2018-09-28T11:19:06.906Z,21.67
2018-09-28T11:21:36.818Z,23.87
2018-09-28T11:24:07.558Z,23.53
2018-09-28T11:26:38.415Z,24.27
2018-09-28T11:29:09.336Z,23.73
2018-09-28T11:31:39.463Z,25.77
2018-09-28T11:34:09.944Z,28.83
2018-09-28T11:36:41.255Z,28.77
2018-09-28T11:39:12.221Z,31.10
2018-09-28T11:41:41.984Z,31.90
2018-09-28T11:44:13.434Z,31.23
2018-09-28T11:46:44.302Z,32.43
2018-09-28T11:49:14.847Z,31.00
2018-09-28T11:51:44.332Z,29.60
2018-09-28T11:54:13.772Z,31.50
2018-09-28T11:56:43.342Z,33.57
2018-09-28T11:59:15.431Z,31.73
2018-09-28T12:01:46.102Z,31.23
2018-09-28T12:04:15.790Z,30.57
2018-09-28T12:06:45.549Z,31.60
2018-09-28T12:09:15.375Z,30.30
2018-09-28T12:11:45.124Z,30.53
2018-09-28T12:14:15.440Z,31.37
2018-09-28T12:16:45.194Z,31.47
2018-09-28T12:19:17.747Z,28.30
2018-09-28T12:21:47.402Z,30.07
2018-09-28T12:24:16.710Z,30.37
2018-09-28T12:26:46.954Z,27.57
2018-09-28T12:29:16.123Z,23.27
2018-09-28T12:31:49.334Z,21.00
2018-09-28T12:34:19.409Z,22.30
2018-09-28T12:36:49.805Z,21.40
2018-09-28T12:39:20.738Z,19.73
2018-09-28T12:41:50.705Z,19.40
2018-09-28T12:44:20.721Z,19.77
2018-09-28T12:46:51.998Z,19.13
2018-09-28T12:49:21.253Z,17.87
2018-09-28T12:51:53.733Z,17.27
2018-09-28T12:54:26.200Z,15.10
2018-09-28T12:56:57.629Z,15.23
2018-09-28T12:59:27.709Z,16.57
2018-09-28T13:01:58.521Z,17.83
2018-09-28T13:04:30.301Z,14.20
2018-09-28T13:07:02.724Z,16.87
2018-09-28T13:09:32.922Z,16.87
2018-09-28T13:12:12.734Z,16.30
2018-09-28T13:14:42.371Z,15.77
2018-09-28T13:17:12.331Z,16.80
2018-09-28T13:19:42.490Z,16.17
2018-09-28T13:22:11.997Z,17.27
2018-09-28T13:24:42.516Z,15.77
2018-09-28T13:27:12.082Z,17.87
2018-09-28T13:29:43.738Z,19.00
2018-09-28T13:32:15.867Z,17.67
2018-09-28T13:34:45.417Z,17.33
2018-09-28T13:37:14.874Z,17.77
2018-09-28T13:39:44.490Z,16.47
2018-09-28T13:42:14.194Z,15.67
2018-09-28T13:44:43.579Z,15.43
2018-09-28T13:47:13.286Z,11.57
2018-09-28T13:49:42.536Z,11.30
2018-09-28T13:52:12.251Z,13.33
2018-09-28T13:54:42.086Z,10.37
2018-09-28T13:57:12.378Z,11.63
2018-09-28T13:59:42.729Z,10.07
2018-09-28T14:02:12.948Z,11.50
2018-09-28T14:04:44.884Z,9.90
2018-09-28T14:07:16.315Z,10.83
2018-09-28T14:12:31.231Z,11.23
2018-09-28T14:15:01.389Z,10.50
2018-09-28T14:17:34.895Z,13.37
2018-09-28T14:20:04.398Z,12.90
2018-09-28T14:22:35.695Z,12.77
2018-09-28T14:25:16.317Z,11.60
2018-09-28T14:27:46.815Z,11.93
2018-09-28T14:30:17.863Z,9.80
2018-09-28T14:32:49.624Z,8.63
2018-09-28T14:35:20.111Z,8.43
2018-09-28T14:37:50.203Z,7.73
2018-09-28T14:40:22.788Z,7.70
2018-09-28T14:42:52.514Z,8.07
2018-09-28T14:45:22.488Z,6.77
2018-09-28T14:47:52.764Z,6.97
2018-09-28T14:50:28.103Z,5.97
2018-09-28T14:52:59.451Z,6.93
2018-09-28T14:55:29.284Z,6.50
2018-09-28T14:57:59.095Z,7.17
2018-09-28T15:00:28.888Z,6.17
2018-09-28T15:02:58.149Z,6.47
2018-09-28T15:05:28.030Z,6.73
2018-09-28T15:08:01.414Z,7.00
2018-09-28T15:10:30.971Z,6.57
2018-09-28T15:13:02.508Z,6.53
2018-09-28T15:15:32.496Z,7.47
2018-09-28T15:18:02.751Z,6.43
2018-09-28T15:20:34.210Z,7.20
2018-09-28T15:23:05.551Z,7.20
2018-09-28T15:25:35.440Z,8.33
2018-09-28T15:28:08.271Z,6.37
2018-09-28T15:30:37.681Z,8.47
2018-09-28T15:33:09.074Z,7.63
2018-09-28T15:35:39.323Z,7.37
2018-09-28T15:38:08.721Z,6.50
2018-09-28T15:40:38.558Z,5.60
2018-09-28T15:43:11.429Z,5.87
2018-09-28T15:45:48.846Z,5.83
2018-09-28T15:48:24.309Z,6.07
2018-09-28T15:50:57.534Z,7.03
2018-09-28T15:53:29.082Z,5.87
2018-09-28T15:56:01.701Z,6.43
2018-09-28T15:58:32.612Z,6.50
2018-09-28T16:01:04.280Z,6.23
2018-09-28T16:03:34.559Z,5.97
2018-09-28T16:06:04.100Z,5.57
2018-09-28T16:08:34.850Z,6.63
2018-09-28T16:11:08.194Z,6.57
2018-09-28T16:13:38.289Z,6.10
2018-09-28T16:16:10.765Z,6.03
2018-09-28T16:18:44.776Z,6.13
2018-09-28T16:21:19.835Z,5.60
2018-09-28T16:23:53.079Z,6.80
2018-09-28T16:26:23.013Z,5.87
2018-09-28T16:28:58.206Z,6.70
2018-09-28T16:31:34.750Z,6.13
2018-09-28T16:34:09.917Z,6.23
2018-09-28T16:36:45.002Z,6.37
2018-09-28T16:39:20.264Z,7.37
2018-09-28T16:41:55.732Z,7.33
2018-09-28T16:44:29.521Z,9.00
2018-09-28T16:47:00.479Z,8.73
2018-09-28T16:49:34.104Z,7.17
2018-09-28T16:52:07.695Z,7.03
2018-09-28T16:54:38.705Z,8.53
2018-09-28T16:57:11.723Z,6.47
2018-09-28T16:59:41.049Z,6.53
2018-09-28T17:02:11.735Z,6.20
2018-09-28T17:04:42.394Z,6.60
2018-09-28T17:07:13.341Z,7.70
2018-09-28T17:09:42.757Z,7.47
2018-09-28T17:12:12.393Z,6.73
2018-09-28T17:14:43.729Z,7.10
2018-09-28T17:17:13.681Z,6.97
2018-09-28T17:19:43.224Z,7.13
2018-09-28T17:22:14.401Z,6.50
2018-09-28T17:24:44.171Z,6.73
2018-09-28T17:27:14.435Z,9.57
2018-09-28T17:29:43.652Z,9.00
2018-09-28T17:32:13.106Z,9.87
2018-09-28T17:34:45.360Z,10.60
2018-09-28T17:37:20.330Z,7.80
2018-09-28T17:39:50.251Z,7.63
2018-09-28T17:42:20.862Z,7.50
2018-09-28T17:44:50.397Z,7.60
2018-09-28T17:47:20.566Z,6.80
2018-09-28T17:49:53.042Z,6.90
2018-09-28T17:52:22.309Z,6.80
2018-09-28T17:54:53.665Z,8.83
2018-09-28T17:57:23.606Z,6.70
2018-09-28T17:59:53.074Z,6.77
2018-09-28T18:02:23.558Z,6.77
2018-09-28T18:04:54.325Z,8.73
2018-09-28T18:07:24.209Z,8.47
2018-09-28T18:09:59.561Z,9.27
2018-09-28T18:12:30.166Z,10.93
2018-09-28T18:15:00.806Z,10.77
2018-09-28T18:17:34.457Z,9.53
2018-09-28T18:20:05.775Z,9.10
2018-09-28T18:22:36.791Z,9.57
2018-09-28T18:25:06.482Z,8.53
2018-09-28T18:27:37.997Z,8.37
2018-09-28T18:30:09.242Z,8.60
2018-09-28T18:32:40.304Z,10.77
2018-09-28T18:35:14.223Z,9.53
2018-09-28T18:37:44.759Z,12.13
2018-09-28T18:40:18.519Z,10.47
2018-09-28T18:42:48.358Z,10.50
2018-09-28T18:45:19.560Z,11.53
2018-09-28T18:47:49.116Z,11.10
2018-09-28T18:50:18.678Z,10.67
2018-09-28T18:52:50.322Z,10.20
2018-09-28T18:55:22.864Z,19.17
2018-09-28T18:57:52.690Z,12.37
2018-09-28T19:00:22.717Z,10.40
2018-09-28T19:05:39.809Z,9.80
2018-09-28T19:08:10.764Z,10.27
2018-09-28T19:11:14.175Z,9.93
2018-09-28T19:13:49.346Z,11.70
2018-09-28T19:16:19.446Z,9.70
2018-09-28T19:19:00.698Z,10.53
2018-09-28T19:21:31.131Z,9.83
2018-09-28T19:24:02.266Z,9.43
2018-09-28T19:26:35.439Z,9.20
2018-09-28T19:29:06.538Z,9.67
2018-09-28T19:31:37.744Z,9.53
2018-09-28T19:34:07.660Z,10.43
2018-09-28T19:36:38.186Z,9.97
2018-09-28T19:39:13.609Z,8.50
2018-09-28T19:41:50.920Z,8.20
2018-09-28T19:44:24.176Z,8.97
2018-09-28T19:46:55.088Z,8.70
2018-09-28T19:49:26.314Z,8.63
2018-09-28T19:51:57.174Z,8.20
2018-09-28T19:54:29.668Z,8.73
2018-09-28T19:57:00.365Z,9.87
2018-09-28T19:59:32.814Z,7.97
2018-09-28T20:02:04.767Z,8.63
2018-09-28T20:04:36.090Z,7.80
2018-09-28T20:07:13.812Z,8.67
2018-09-28T20:09:45.168Z,9.30
2018-09-28T20:12:18.018Z,9.33
2018-09-28T20:14:49.130Z,9.40
2018-09-28T20:17:18.720Z,9.93
2018-09-28T20:19:49.729Z,9.80
2018-09-28T20:22:23.202Z,9.43
2018-09-28T20:25:01.661Z,8.80
2018-09-28T20:27:32.756Z,8.43
2018-09-28T20:30:03.565Z,8.37
2018-09-28T20:32:33.537Z,8.73
2018-09-28T20:35:03.638Z,8.30
2018-09-28T20:37:36.390Z,8.67
2018-09-28T20:40:07.390Z,9.00
2018-09-28T20:42:44.630Z,9.03
2018-09-28T20:45:14.678Z,8.47
2018-09-28T20:47:46.470Z,7.97
2018-09-28T20:50:18.069Z,7.67
2018-09-28T20:52:49.246Z,8.20
2018-09-28T20:55:18.397Z,7.53
2018-09-28T20:57:47.776Z,7.80
2018-09-28T21:00:17.281Z,7.90
2018-09-28T21:02:46.994Z,7.70
2018-09-28T21:05:16.332Z,7.23
2018-09-28T21:07:48.707Z,7.87
2018-09-28T21:10:18.854Z,7.80
2018-09-28T21:12:51.629Z,8.57
2018-09-28T21:15:21.247Z,8.27
2018-09-28T21:17:51.229Z,8.30
2018-09-28T21:20:23.304Z,8.47
2018-09-28T21:22:53.384Z,9.03
2018-09-28T21:25:25.986Z,8.47
2018-09-28T21:27:55.350Z,9.17
2018-09-28T21:30:25.564Z,8.40
2018-09-28T21:32:54.903Z,8.30
2018-09-28T21:35:24.117Z,7.70
2018-09-28T21:37:54.734Z,8.03
2018-09-28T21:40:24.064Z,7.43
2018-09-28T21:42:54.316Z,7.70
2018-09-28T21:45:28.189Z,7.20
2018-09-28T21:47:58.777Z,7.13
2018-09-28T21:50:29.327Z,7.50
2018-09-28T21:52:59.015Z,7.10
2018-09-28T21:55:28.644Z,7.57
2018-09-28T21:57:58.204Z,7.23
2018-09-28T22:00:27.545Z,7.47
2018-09-28T22:02:58.348Z,7.40
2018-09-28T22:05:28.471Z,7.30
2018-09-28T22:07:58.199Z,6.97
2018-09-28T22:10:27.420Z,6.57
2018-09-28T22:12:57.722Z,6.47
2018-09-28T22:15:27.745Z,7.17
2018-09-28T22:17:57.883Z,7.80
2018-09-28T22:20:28.028Z,6.50
2018-09-28T22:22:57.306Z,6.93
2018-09-28T22:25:28.017Z,6.63
2018-09-28T22:27:57.818Z,6.40
2018-09-28T22:30:27.185Z,6.13
2018-09-28T22:32:56.623Z,6.43
2018-09-28T22:35:26.702Z,6.87
2018-09-28T22:37:59.107Z,6.63
2018-09-28T22:40:28.321Z,6.50
2018-09-28T22:42:57.989Z,6.83
2018-09-28T22:45:27.337Z,6.97
2018-09-28T22:47:57.591Z,6.77
2018-09-28T22:50:28.681Z,6.43
2018-09-28T22:53:01.291Z,6.80
2018-09-28T22:55:32.703Z,7.17
2018-09-28T22:58:02.216Z,7.60
2018-09-28T23:00:32.735Z,7.30
2018-09-28T23:03:02.950Z,6.97
2018-09-28T23:05:33.455Z,6.87
2018-09-28T23:08:02.613Z,6.27
2018-09-28T23:10:32.659Z,5.80
2018-09-28T23:13:02.493Z,6.13
2018-09-28T23:15:34.759Z,5.53
2018-09-28T23:18:06.300Z,5.80
2018-09-28T23:20:35.927Z,5.77
2018-09-28T23:23:05.129Z,5.83
2018-09-28T23:25:34.242Z,5.10
2018-09-28T23:28:03.760Z,6.07
2018-09-28T23:30:33.031Z,5.23
2018-09-28T23:33:02.191Z,5.50
2018-09-28T23:35:31.574Z,6.07
2018-09-28T23:38:00.762Z,5.20
2018-09-28T23:40:30.722Z,5.27
2018-09-28T23:43:00.283Z,5.97
2018-09-28T23:45:29.455Z,5.83
2018-09-28T23:48:00.182Z,5.77
2018-09-28T23:50:29.747Z,6.03
2018-09-28T23:52:59.641Z,6.00
2018-09-28T23:55:29.055Z,5.63
2018-09-28T23:57:58.676Z,7.30
